KRDG/RDG METAR and TAF weather

Enter ICAO airport designator
Station Type Date Time Source
KRDG METAR 2019/02/22 22:54 UTC NOAA

KRDG 222254Z 29006KT 10SM CLR 06/M03 A3040 RMK AO2 SLP300 T00561033


Station Type Date Time Source
KRDG Decoded METAR 2019/02/22 22:54 UTC NOAA

READING REGIONAL AIRPORT, PA, United States (KRDG) 40-22N 075-58W 109M
Feb 22, 2019 - 05:54 PM EST / 2019.02.22 2254 UTC
Wind: from the WNW (290 degrees) at 7 MPH (6 KT):0
Visibility: 10 mile(s):0
Sky conditions: clear
Temperature: 42.1 F (5.6 C)
Dew Point: 26.1 F (-3.3 C)
Relative Humidity: 52%
Pressure (altimeter): 30.4 in. Hg (1029 hPa)
ob: KRDG 222254Z 29006KT 10SM CLR 06/M03 A3040 RMK AO2 SLP300 T00561033
cycle: 23

Station Type Date Time Source
KRDG TAF 2019/02/22 18:22 UTC NOAA

TAF KRDG 221720Z 2218/2318 33005KT P6SM BKN250
FM230200 VRB02KT P6SM BKN250
FM231400 15004KT P6SM BKN200


Example: see airport list